createdAt,value
2022-11-09T00:01:39.078Z,1.50
2022-11-09T00:06:31.852Z,1.27
2022-11-09T00:11:25.378Z,1.30
2022-11-09T00:16:19.812Z,1.03
2022-11-09T00:21:20.391Z,1.23
2022-11-09T00:26:15.293Z,1.30
2022-11-09T00:31:11.979Z,1.40
2022-11-09T00:36:10.418Z,1.10
2022-11-09T00:41:06.462Z,1.13
2022-11-09T00:45:58.241Z,1.10
2022-11-09T00:50:52.173Z,1.40
2022-11-09T00:55:43.939Z,1.30
2022-11-09T01:00:35.733Z,1.47
2022-11-09T01:05:27.555Z,1.10
2022-11-09T01:10:19.716Z,1.23
2022-11-09T01:15:11.634Z,1.30
2022-11-09T01:20:04.241Z,1.00
2022-11-09T01:24:55.951Z,0.93
2022-11-09T01:29:49.124Z,1.10
2022-11-09T01:34:40.809Z,1.27
2022-11-09T01:39:32.773Z,1.13
2022-11-09T01:44:28.009Z,1.23
2022-11-09T01:49:22.198Z,1.17
2022-11-09T01:54:31.644Z,1.20
2022-11-09T01:59:29.555Z,1.13
2022-11-09T02:04:27.785Z,1.03
2022-11-09T02:09:25.525Z,1.10
2022-11-09T02:14:18.954Z,0.90
2022-11-09T02:19:10.756Z,1.07
2022-11-09T02:24:02.770Z,1.20
2022-11-09T02:28:56.439Z,1.00
2022-11-09T02:33:51.652Z,1.20
2022-11-09T02:38:43.435Z,1.30
2022-11-09T02:43:36.868Z,1.10
2022-11-09T02:48:29.183Z,1.30
2022-11-09T02:53:22.533Z,1.30
2022-11-09T02:58:14.216Z,1.20
2022-11-09T03:03:07.106Z,1.60
2022-11-09T03:08:02.254Z,1.40
2022-11-09T03:12:58.917Z,1.20
2022-11-09T03:17:50.711Z,1.10
2022-11-09T03:22:45.119Z,1.20
2022-11-09T03:27:37.470Z,1.30
2022-11-09T03:32:30.242Z,1.40
2022-11-09T03:37:22.037Z,1.03
2022-11-09T03:42:14.613Z,0.90
2022-11-09T03:47:06.434Z,1.30
2022-11-09T03:51:58.122Z,1.13
2022-11-09T03:56:49.821Z,1.20
2022-11-09T04:01:41.549Z,1.10
2022-11-09T04:06:33.322Z,1.23
2022-11-09T04:11:25.758Z,1.20
2022-11-09T04:16:17.510Z,1.17
2022-11-09T04:21:09.302Z,1.33
2022-11-09T04:26:00.940Z,1.30
2022-11-09T04:30:52.884Z,1.10
2022-11-09T04:35:44.961Z,1.23
2022-11-09T04:40:36.814Z,1.40
2022-11-09T04:45:29.060Z,1.20
2022-11-09T04:50:20.828Z,1.20
2022-11-09T04:55:16.434Z,1.30
2022-11-09T05:00:08.913Z,1.50
2022-11-09T05:05:00.557Z,1.13
2022-11-09T05:09:52.225Z,1.10
2022-11-09T05:14:43.916Z,1.47
2022-11-09T05:19:35.697Z,1.50
2022-11-09T05:24:27.372Z,1.23
2022-11-09T05:29:19.043Z,1.33
2022-11-09T05:34:12.894Z,1.53
2022-11-09T05:39:04.555Z,1.37
2022-11-09T05:43:56.255Z,2.20
2022-11-09T05:48:48.000Z,1.60
2022-11-09T05:53:43.714Z,1.83
2022-11-09T05:58:38.944Z,1.30
2022-11-09T06:03:30.806Z,1.20
2022-11-09T06:08:22.480Z,1.50
2022-11-09T06:13:14.086Z,1.40
2022-11-09T06:18:05.838Z,1.87
2022-11-09T06:23:03.060Z,1.93
2022-11-09T06:27:55.772Z,1.60
2022-11-09T06:32:47.460Z,1.57
2022-11-09T06:37:39.114Z,2.07
2022-11-09T06:42:30.834Z,1.17
2022-11-09T06:47:22.828Z,2.00
2022-11-09T06:52:14.443Z,1.60
2022-11-09T06:57:06.164Z,1.30
2022-11-09T07:02:01.446Z,1.70
2022-11-09T07:06:53.515Z,1.77
2022-11-09T07:11:45.224Z,1.60
2022-11-09T07:16:37.554Z,1.60
2022-11-09T07:21:29.240Z,2.00
2022-11-09T07:26:21.361Z,1.70
2022-11-09T07:31:13.048Z,1.90
2022-11-09T07:36:05.652Z,1.50
2022-11-09T07:41:01.407Z,1.47
2022-11-09T07:45:53.236Z,1.60
2022-11-09T07:50:45.291Z,1.57
2022-11-09T07:55:37.983Z,1.87
2022-11-09T08:00:31.804Z,2.20
2022-11-09T08:05:23.717Z,1.77
2022-11-09T08:10:15.670Z,1.67
2022-11-09T08:15:07.739Z,2.20
2022-11-09T08:19:59.378Z,2.10
2022-11-09T08:24:51.338Z,3.90
2022-11-09T08:29:43.875Z,1.70
2022-11-09T08:34:35.551Z,2.00
2022-11-09T08:39:27.228Z,1.60
2022-11-09T08:44:19.365Z,1.80
2022-11-09T08:49:11.050Z,1.90
2022-11-09T08:54:04.017Z,1.60
2022-11-09T08:58:55.692Z,1.60
2022-11-09T09:03:48.209Z,1.70
2022-11-09T09:08:39.871Z,1.30
2022-11-09T09:13:32.238Z,1.60
2022-11-09T09:18:24.546Z,1.20
2022-11-09T09:23:17.096Z,1.20
2022-11-09T09:28:08.728Z,1.50
2022-11-09T09:33:01.357Z,1.40
2022-11-09T09:37:53.270Z,1.30
2022-11-09T09:42:45.212Z,1.60
2022-11-09T09:48:06.377Z,1.40
2022-11-09T09:53:22.681Z,1.27
2022-11-09T09:58:19.231Z,0.87
2022-11-09T10:03:17.351Z,1.00
2022-11-09T10:08:30.160Z,1.10
2022-11-09T10:13:57.460Z,1.10
2022-11-09T10:19:16.446Z,1.20
2022-11-09T10:24:31.158Z,1.87
2022-11-09T10:29:28.132Z,1.27
2022-11-09T10:34:36.370Z,1.10
2022-11-09T10:39:39.067Z,1.10
2022-11-09T10:44:49.886Z,1.53
2022-11-09T10:50:32.552Z,1.00
2022-11-09T10:55:57.055Z,1.73
2022-11-09T11:01:16.459Z,1.30
2022-11-09T11:06:33.716Z,1.10
2022-11-09T11:11:43.983Z,1.97
2022-11-09T11:16:56.146Z,1.20
2022-11-09T11:22:13.049Z,0.97
2022-11-09T11:27:56.423Z,1.17
2022-11-09T11:33:14.848Z,1.20
2022-11-09T11:38:56.116Z,1.40
2022-11-09T11:44:34.949Z,1.03
2022-11-09T11:49:59.309Z,1.47
2022-11-09T11:55:16.043Z,1.20
2022-11-09T12:00:26.548Z,1.87
2022-11-09T12:05:52.473Z,1.50
2022-11-09T12:11:12.087Z,1.93
2022-11-09T12:16:40.454Z,1.70
2022-11-09T12:22:16.828Z,2.33
2022-11-09T12:27:54.062Z,2.60
2022-11-09T12:33:13.293Z,3.83
2022-11-09T12:38:29.795Z,1.90
2022-11-09T12:43:57.956Z,2.17
2022-11-09T12:49:36.081Z,1.90
2022-11-09T12:54:49.766Z,2.30
2022-11-09T13:00:00.945Z,1.93
2022-11-09T13:05:48.617Z,2.10
2022-11-09T13:11:19.088Z,1.97
2022-11-09T13:16:35.626Z,3.27
2022-11-09T13:21:46.058Z,3.57
2022-11-09T13:27:04.476Z,1.43
2022-11-09T13:32:20.871Z,1.90
2022-11-09T13:37:40.720Z,1.80
2022-11-09T13:43:17.132Z,1.97
2022-11-09T13:48:34.786Z,1.70
2022-11-09T13:53:59.888Z,1.77
2022-11-09T13:59:33.968Z,1.63
2022-11-09T14:04:45.012Z,1.63
2022-11-09T14:10:35.321Z,1.83
2022-11-09T14:15:56.716Z,2.07
2022-11-09T14:21:27.808Z,1.50
2022-11-09T14:26:38.326Z,1.60
2022-11-09T14:31:48.936Z,1.93
2022-11-09T14:37:04.567Z,1.90
2022-11-09T14:42:23.241Z,1.10
2022-11-09T14:47:37.896Z,1.60
2022-11-09T14:52:50.452Z,1.43
2022-11-09T14:58:02.532Z,1.30
2022-11-09T15:03:22.796Z,1.20
2022-11-09T15:08:34.439Z,1.67
2022-11-09T15:13:44.677Z,1.10
2022-11-09T15:18:55.185Z,2.27
2022-11-09T15:24:08.828Z,2.13
2022-11-09T15:29:31.557Z,1.57
2022-11-09T15:34:52.607Z,1.93
2022-11-09T15:40:06.653Z,1.50
2022-11-09T15:45:19.228Z,1.70
2022-11-09T15:50:29.276Z,2.30
2022-11-09T15:55:39.830Z,1.50
2022-11-09T16:00:50.462Z,1.60
2022-11-09T16:06:01.486Z,1.67
2022-11-09T16:11:12.492Z,1.70
2022-11-09T16:16:23.083Z,1.63
2022-11-09T16:21:34.913Z,1.57
2022-11-09T16:26:46.047Z,1.77
2022-11-09T16:31:57.322Z,1.53
2022-11-09T16:37:07.784Z,1.50
2022-11-09T16:42:19.372Z,4.47
2022-11-09T16:47:29.733Z,2.30
2022-11-09T16:52:40.025Z,2.20
2022-11-09T16:57:50.361Z,2.00
2022-11-09T17:03:04.642Z,2.73
2022-11-09T17:08:15.069Z,2.90
2022-11-09T17:13:25.815Z,2.97
2022-11-09T17:18:38.548Z,2.57
2022-11-09T17:23:49.232Z,2.40
2022-11-09T17:28:59.518Z,2.83
2022-11-09T17:34:12.252Z,2.53
2022-11-09T17:39:22.839Z,1.83
2022-11-09T17:44:35.714Z,1.90
2022-11-09T17:49:45.812Z,2.73
2022-11-09T17:54:56.329Z,2.27
2022-11-09T18:00:07.893Z,4.30
2022-11-09T18:05:18.083Z,4.20
2022-11-09T18:10:28.595Z,4.10
2022-11-09T18:15:39.971Z,4.10
2022-11-09T18:20:50.961Z,2.70
2022-11-09T18:26:01.627Z,2.90
2022-11-09T18:31:13.739Z,4.07
2022-11-09T18:36:24.434Z,2.40
2022-11-09T18:41:34.772Z,1.90
2022-11-09T18:46:45.891Z,2.00
2022-11-09T18:51:57.155Z,2.53
2022-11-09T18:57:07.918Z,2.20
2022-11-09T19:02:18.559Z,1.63
2022-11-09T19:07:29.348Z,2.03
2022-11-09T19:12:39.888Z,2.30
2022-11-09T19:17:50.464Z,2.20
2022-11-09T19:23:00.911Z,2.30
2022-11-09T19:28:11.423Z,2.10
2022-11-09T19:33:22.540Z,3.10
2022-11-09T19:38:33.090Z,2.23
2022-11-09T19:43:43.363Z,2.40
2022-11-09T19:48:53.890Z,2.27
2022-11-09T19:54:05.977Z,2.20
2022-11-09T19:59:17.067Z,1.97
2022-11-09T20:04:28.634Z,2.10
2022-11-09T20:09:38.924Z,3.00
2022-11-09T20:14:49.414Z,3.23
2022-11-09T20:20:00.066Z,3.03
2022-11-09T20:25:10.531Z,7.03
2022-11-09T20:30:21.082Z,8.17
2022-11-09T20:35:31.625Z,5.87
2022-11-09T20:40:42.360Z,4.83
2022-11-09T20:45:53.558Z,2.70
2022-11-09T20:51:09.165Z,2.60
2022-11-09T20:56:20.773Z,5.00
2022-11-09T21:01:32.051Z,5.53
2022-11-09T21:06:42.561Z,6.17
2022-11-09T21:12:11.704Z,2.57
2022-11-09T21:17:22.115Z,2.00
2022-11-09T21:22:51.610Z,2.57
2022-11-09T21:28:20.913Z,2.20
2022-11-09T21:33:31.467Z,2.30
2022-11-09T21:38:42.187Z,2.30
2022-11-09T21:43:57.329Z,2.30
2022-11-09T21:49:09.372Z,2.50
2022-11-09T21:54:20.550Z,1.93
2022-11-09T21:59:30.889Z,2.07
2022-11-09T22:04:42.522Z,1.77
2022-11-09T22:15:42.117Z,2.10
2022-11-09T22:20:55.633Z,1.67
2022-11-09T22:26:06.263Z,1.87
2022-11-09T22:31:16.560Z,1.60
2022-11-09T22:36:27.000Z,1.80
2022-11-09T22:41:37.448Z,1.50
2022-11-09T22:46:49.165Z,1.80
2022-11-09T22:51:59.274Z,1.63
2022-11-09T22:57:10.994Z,1.40
2022-11-09T23:02:21.508Z,1.90
2022-11-09T23:07:31.849Z,2.57
2022-11-09T23:12:42.272Z,1.77
2022-11-09T23:18:12.208Z,1.67
2022-11-09T23:23:23.027Z,2.10
2022-11-09T23:28:34.513Z,1.83
2022-11-09T23:33:44.861Z,1.60
2022-11-09T23:38:55.223Z,2.30
2022-11-09T23:44:05.320Z,2.10
2022-11-09T23:49:15.898Z,1.60
2022-11-09T23:54:26.658Z,1.60
2022-11-09T23:59:36.807Z,1.33
